sensor_id;sensor_type;location;lat;lon;timestamp;P1;durP1;ratioP1;P2;durP2;ratioP2
64186;SDS011;50491;39.484;-8.540;2022-11-20T00:00:57;16.85;;;7.35;;
64186;SDS011;50491;39.484;-8.540;2022-11-20T00:02:58;14.88;;;8.45;;
64186;SDS011;50491;39.484;-8.540;2022-11-20T00:05:16;17.00;;;8.93;;
64186;SDS011;50491;39.484;-8.540;2022-11-20T00:07:18;21.98;;;9.55;;
64186;SDS011;50491;39.484;-8.540;2022-11-20T00:09:37;10.38;;;7.35;;
64186;SDS011;50491;39.484;-8.540;2022-11-20T00:11:38;9.85;;;6.15;;
64186;SDS011;50491;39.484;-8.540;2022-11-20T00:13:39;12.25;;;6.60;;
64186;SDS011;50491;39.484;-8.540;2022-11-20T00:15:40;16.38;;;7.10;;
64186;SDS011;50491;39.484;-8.540;2022-11-20T00:17:40;12.32;;;7.45;;
64186;SDS011;50491;39.484;-8.540;2022-11-20T00:19:41;10.43;;;5.95;;
64186;SDS011;50491;39.484;-8.540;2022-11-20T00:22:06;14.25;;;8.13;;
64186;SDS011;50491;39.484;-8.540;2022-11-20T00:24:10;16.30;;;7.15;;
64186;SDS011;50491;39.484;-8.540;2022-11-20T00:26:11;15.35;;;9.55;;
64186;SDS011;50491;39.484;-8.540;2022-11-20T00:28:13;17.10;;;10.13;;
64186;SDS011;50491;39.484;-8.540;2022-11-20T00:32:58;12.65;;;7.03;;
64186;SDS011;50491;39.484;-8.540;2022-11-20T00:34:59;17.10;;;8.07;;
64186;SDS011;50491;39.484;-8.540;2022-11-20T00:37:00;11.55;;;6.90;;
64186;SDS011;50491;39.484;-8.540;2022-11-20T00:39:00;10.75;;;7.05;;
64186;SDS011;50491;39.484;-8.540;2022-11-20T00:41:02;12.02;;;7.60;;
64186;SDS011;50491;39.484;-8.540;2022-11-20T00:45:42;11.57;;;7.88;;
64186;SDS011;50491;39.484;-8.540;2022-11-20T00:47:43;13.75;;;5.90;;
64186;SDS011;50491;39.484;-8.540;2022-11-20T00:49:43;13.85;;;8.05;;
64186;SDS011;50491;39.484;-8.540;2022-11-20T00:51:44;12.38;;;8.32;;
64186;SDS011;50491;39.484;-8.540;2022-11-20T00:53:45;13.23;;;7.38;;
64186;SDS011;50491;39.484;-8.540;2022-11-20T00:56:19;9.60;;;6.95;;
64186;SDS011;50491;39.484;-8.540;2022-11-20T00:58:14;11.23;;;7.97;;
64186;SDS011;50491;39.484;-8.540;2022-11-20T01:00:15;14.55;;;6.65;;
64186;SDS011;50491;39.484;-8.540;2022-11-20T01:02:16;16.25;;;8.02;;
64186;SDS011;50491;39.484;-8.540;2022-11-20T01:04:16;10.65;;;7.47;;
64186;SDS011;50491;39.484;-8.540;2022-11-20T01:06:18;9.40;;;6.65;;
64186;SDS011;50491;39.484;-8.540;2022-11-20T01:08:23;12.63;;;8.00;;
64186;SDS011;50491;39.484;-8.540;2022-11-20T01:10:24;11.85;;;7.78;;
64186;SDS011;50491;39.484;-8.540;2022-11-20T01:12:24;12.98;;;8.05;;
64186;SDS011;50491;39.484;-8.540;2022-11-20T01:14:25;12.90;;;7.70;;
64186;SDS011;50491;39.484;-8.540;2022-11-20T01:16:48;18.65;;;8.02;;
64186;SDS011;50491;39.484;-8.540;2022-11-20T01:19:12;13.13;;;7.13;;
64186;SDS011;50491;39.484;-8.540;2022-11-20T01:21:41;13.32;;;6.60;;
64186;SDS011;50491;39.484;-8.540;2022-11-20T01:23:43;15.70;;;9.30;;
64186;SDS011;50491;39.484;-8.540;2022-11-20T01:26:03;12.15;;;8.20;;
64186;SDS011;50491;39.484;-8.540;2022-11-20T01:28:05;11.88;;;6.95;;
64186;SDS011;50491;39.484;-8.540;2022-11-20T01:30:05;24.92;;;8.57;;
64186;SDS011;50491;39.484;-8.540;2022-11-20T01:32:06;12.88;;;7.07;;
64186;SDS011;50491;39.484;-8.540;2022-11-20T01:34:25;18.92;;;8.43;;
64186;SDS011;50491;39.484;-8.540;2022-11-20T01:40:54;12.93;;;8.52;;
64186;SDS011;50491;39.484;-8.540;2022-11-20T01:47:08;15.27;;;7.68;;
64186;SDS011;50491;39.484;-8.540;2022-11-20T01:49:39;12.95;;;7.38;;
64186;SDS011;50491;39.484;-8.540;2022-11-20T01:54:31;11.13;;;6.47;;
64186;SDS011;50491;39.484;-8.540;2022-11-20T01:56:37;10.60;;;7.93;;
64186;SDS011;50491;39.484;-8.540;2022-11-20T01:58:40;11.45;;;7.82;;
64186;SDS011;50491;39.484;-8.540;2022-11-20T02:00:44;12.38;;;7.00;;
64186;SDS011;50491;39.484;-8.540;2022-11-20T02:02:50;15.30;;;8.32;;
64186;SDS011;50491;39.484;-8.540;2022-11-20T02:04:52;11.18;;;7.75;;
64186;SDS011;50491;39.484;-8.540;2022-11-20T02:06:59;10.63;;;7.57;;
64186;SDS011;50491;39.484;-8.540;2022-11-20T02:09:19;12.00;;;8.23;;
64186;SDS011;50491;39.484;-8.540;2022-11-20T02:11:20;13.95;;;7.82;;
64186;SDS011;50491;39.484;-8.540;2022-11-20T02:13:20;15.07;;;8.20;;
64186;SDS011;50491;39.484;-8.540;2022-11-20T02:15:40;11.48;;;8.10;;
64186;SDS011;50491;39.484;-8.540;2022-11-20T02:17:41;18.80;;;8.57;;
64186;SDS011;50491;39.484;-8.540;2022-11-20T02:19:41;14.18;;;8.07;;
64186;SDS011;50491;39.484;-8.540;2022-11-20T02:22:14;12.57;;;8.30;;
64186;SDS011;50491;39.484;-8.540;2022-11-20T02:27:34;14.75;;;9.52;;
64186;SDS011;50491;39.484;-8.540;2022-11-20T02:29:38;17.75;;;7.47;;
64186;SDS011;50491;39.484;-8.540;2022-11-20T02:31:48;12.65;;;8.50;;
64186;SDS011;50491;39.484;-8.540;2022-11-20T02:34:08;13.27;;;9.13;;
64186;SDS011;50491;39.484;-8.540;2022-11-20T02:38:28;15.75;;;9.20;;
64186;SDS011;50491;39.484;-8.540;2022-11-20T02:40:47;10.73;;;7.65;;
64186;SDS011;50491;39.484;-8.540;2022-11-20T02:43:15;23.90;;;10.27;;
64186;SDS011;50491;39.484;-8.540;2022-11-20T02:45:16;15.18;;;9.65;;
64186;SDS011;50491;39.484;-8.540;2022-11-20T02:47:41;19.67;;;10.63;;
64186;SDS011;50491;39.484;-8.540;2022-11-20T02:53:16;25.50;;;9.85;;
64186;SDS011;50491;39.484;-8.540;2022-11-20T02:55:42;15.25;;;7.65;;
64186;SDS011;50491;39.484;-8.540;2022-11-20T02:58:09;10.88;;;7.60;;
64186;SDS011;50491;39.484;-8.540;2022-11-20T03:01:00;11.73;;;7.28;;
64186;SDS011;50491;39.484;-8.540;2022-11-20T03:03:00;16.67;;;9.75;;
64186;SDS011;50491;39.484;-8.540;2022-11-20T03:05:20;16.13;;;9.48;;
64186;SDS011;50491;39.484;-8.540;2022-11-20T03:07:21;13.23;;;8.57;;
64186;SDS011;50491;39.484;-8.540;2022-11-20T03:09:21;21.00;;;9.48;;
64186;SDS011;50491;39.484;-8.540;2022-11-20T03:11:22;12.02;;;8.15;;
64186;SDS011;50491;39.484;-8.540;2022-11-20T03:13:22;13.68;;;8.32;;
64186;SDS011;50491;39.484;-8.540;2022-11-20T03:15:25;18.48;;;9.95;;
64186;SDS011;50491;39.484;-8.540;2022-11-20T03:17:26;13.45;;;8.98;;
64186;SDS011;50491;39.484;-8.540;2022-11-20T03:19:51;14.25;;;7.90;;
64186;SDS011;50491;39.484;-8.540;2022-11-20T03:21:52;15.48;;;8.00;;
64186;SDS011;50491;39.484;-8.540;2022-11-20T03:23:53;12.18;;;7.45;;
64186;SDS011;50491;39.484;-8.540;2022-11-20T03:26:16;14.77;;;8.70;;
64186;SDS011;50491;39.484;-8.540;2022-11-20T03:28:19;9.93;;;7.47;;
64186;SDS011;50491;39.484;-8.540;2022-11-20T03:30:38;14.50;;;9.25;;
64186;SDS011;50491;39.484;-8.540;2022-11-20T03:32:57;13.07;;;8.23;;
64186;SDS011;50491;39.484;-8.540;2022-11-20T03:38:32;22.42;;;9.15;;
64186;SDS011;50491;39.484;-8.540;2022-11-20T03:43:30;26.45;;;8.45;;
64186;SDS011;50491;39.484;-8.540;2022-11-20T03:45:31;12.45;;;6.88;;
64186;SDS011;50491;39.484;-8.540;2022-11-20T03:47:31;24.60;;;9.52;;
64186;SDS011;50491;39.484;-8.540;2022-11-20T04:00:31;16.80;;;8.45;;
64186;SDS011;50491;39.484;-8.540;2022-11-20T04:02:50;30.90;;;10.65;;
64186;SDS011;50491;39.484;-8.540;2022-11-20T04:05:09;13.52;;;10.00;;
64186;SDS011;50491;39.484;-8.540;2022-11-20T04:07:15;18.98;;;7.78;;
64186;SDS011;50491;39.484;-8.540;2022-11-20T04:09:15;11.32;;;7.93;;
64186;SDS011;50491;39.484;-8.540;2022-11-20T04:11:17;20.40;;;9.43;;
64186;SDS011;50491;39.484;-8.540;2022-11-20T04:18:36;13.02;;;7.80;;
64186;SDS011;50491;39.484;-8.540;2022-11-20T04:23:15;25.85;;;13.30;;
64186;SDS011;50491;39.484;-8.540;2022-11-20T04:25:16;19.48;;;9.52;;
64186;SDS011;50491;39.484;-8.540;2022-11-20T04:27:16;11.93;;;8.23;;
64186;SDS011;50491;39.484;-8.540;2022-11-20T04:29:35;22.33;;;10.00;;
64186;SDS011;50491;39.484;-8.540;2022-11-20T04:31:36;25.13;;;9.63;;
64186;SDS011;50491;39.484;-8.540;2022-11-20T04:33:37;12.30;;;7.00;;
64186;SDS011;50491;39.484;-8.540;2022-11-20T04:38:06;17.52;;;10.45;;
64186;SDS011;50491;39.484;-8.540;2022-11-20T04:40:06;16.75;;;10.13;;
64186;SDS011;50491;39.484;-8.540;2022-11-20T04:42:57;18.33;;;9.05;;
64186;SDS011;50491;39.484;-8.540;2022-11-20T04:45:17;21.23;;;8.63;;
64186;SDS011;50491;39.484;-8.540;2022-11-20T04:47:55;11.13;;;7.25;;
64186;SDS011;50491;39.484;-8.540;2022-11-20T04:49:55;17.35;;;9.48;;
64186;SDS011;50491;39.484;-8.540;2022-11-20T04:51:57;18.95;;;9.50;;
64186;SDS011;50491;39.484;-8.540;2022-11-20T04:54:17;22.40;;;11.25;;
64186;SDS011;50491;39.484;-8.540;2022-11-20T04:56:18;19.98;;;11.88;;
64186;SDS011;50491;39.484;-8.540;2022-11-20T04:58:19;12.15;;;7.63;;
64186;SDS011;50491;39.484;-8.540;2022-11-20T05:00:19;9.57;;;8.18;;
64186;SDS011;50491;39.484;-8.540;2022-11-20T05:02:39;10.73;;;8.02;;
64186;SDS011;50491;39.484;-8.540;2022-11-20T05:07:24;12.55;;;7.72;;
64186;SDS011;50491;39.484;-8.540;2022-11-20T05:09:24;12.75;;;8.55;;
64186;SDS011;50491;39.484;-8.540;2022-11-20T05:11:44;12.55;;;8.27;;
64186;SDS011;50491;39.484;-8.540;2022-11-20T05:13:44;10.82;;;7.00;;
64186;SDS011;50491;39.484;-8.540;2022-11-20T05:15:45;8.95;;;6.90;;
64186;SDS011;50491;39.484;-8.540;2022-11-20T05:17:48;9.75;;;6.70;;
64186;SDS011;50491;39.484;-8.540;2022-11-20T05:19:50;9.35;;;7.22;;
64186;SDS011;50491;39.484;-8.540;2022-11-20T05:22:15;9.45;;;7.90;;
64186;SDS011;50491;39.484;-8.540;2022-11-20T05:24:16;12.07;;;6.95;;
64186;SDS011;50491;39.484;-8.540;2022-11-20T05:26:17;11.70;;;7.18;;
64186;SDS011;50491;39.484;-8.540;2022-11-20T05:28:20;12.38;;;7.68;;
64186;SDS011;50491;39.484;-8.540;2022-11-20T05:30:21;11.07;;;7.50;;
64186;SDS011;50491;39.484;-8.540;2022-11-20T05:32:21;10.88;;;6.93;;
64186;SDS011;50491;39.484;-8.540;2022-11-20T05:39:22;11.48;;;7.30;;
64186;SDS011;50491;39.484;-8.540;2022-11-20T05:47:46;16.73;;;9.90;;
64186;SDS011;50491;39.484;-8.540;2022-11-20T05:52:43;11.30;;;7.33;;
64186;SDS011;50491;39.484;-8.540;2022-11-20T05:57:41;10.40;;;7.15;;
64186;SDS011;50491;39.484;-8.540;2022-11-20T05:59:41;9.48;;;7.55;;
64186;SDS011;50491;39.484;-8.540;2022-11-20T06:04:20;9.77;;;7.43;;
64186;SDS011;50491;39.484;-8.540;2022-11-20T06:06:40;7.93;;;6.63;;
64186;SDS011;50491;39.484;-8.540;2022-11-20T06:08:41;8.52;;;6.13;;
64186;SDS011;50491;39.484;-8.540;2022-11-20T06:11:10;11.38;;;7.47;;
64186;SDS011;50491;39.484;-8.540;2022-11-20T06:13:12;8.55;;;6.60;;
64186;SDS011;50491;39.484;-8.540;2022-11-20T06:15:31;7.72;;;5.68;;
64186;SDS011;50491;39.484;-8.540;2022-11-20T06:17:57;9.90;;;7.95;;
64186;SDS011;50491;39.484;-8.540;2022-11-20T06:19:59;11.80;;;8.32;;
64186;SDS011;50491;39.484;-8.540;2022-11-20T06:22:24;11.35;;;7.97;;
64186;SDS011;50491;39.484;-8.540;2022-11-20T06:27:03;11.70;;;6.82;;
64186;SDS011;50491;39.484;-8.540;2022-11-20T06:31:42;13.55;;;7.78;;
64186;SDS011;50491;39.484;-8.540;2022-11-20T06:33:43;8.32;;;6.10;;
64186;SDS011;50491;39.484;-8.540;2022-11-20T06:35:44;10.35;;;7.13;;
64186;SDS011;50491;39.484;-8.540;2022-11-20T06:37:44;13.60;;;9.43;;
64186;SDS011;50491;39.484;-8.540;2022-11-20T06:39:45;9.35;;;7.10;;
64186;SDS011;50491;39.484;-8.540;2022-11-20T06:41:46;17.48;;;8.52;;
64186;SDS011;50491;39.484;-8.540;2022-11-20T06:43:46;21.52;;;7.03;;
64186;SDS011;50491;39.484;-8.540;2022-11-20T06:45:54;10.07;;;7.00;;
64186;SDS011;50491;39.484;-8.540;2022-11-20T06:50:58;12.50;;;7.75;;
64186;SDS011;50491;39.484;-8.540;2022-11-20T06:53:02;10.20;;;6.95;;
64186;SDS011;50491;39.484;-8.540;2022-11-20T06:55:04;10.82;;;6.93;;
64186;SDS011;50491;39.484;-8.540;2022-11-20T06:57:05;12.32;;;8.20;;
64186;SDS011;50491;39.484;-8.540;2022-11-20T06:59:06;9.30;;;6.72;;
64186;SDS011;50491;39.484;-8.540;2022-11-20T07:01:25;12.65;;;8.23;;
64186;SDS011;50491;39.484;-8.540;2022-11-20T07:03:44;19.50;;;8.60;;
64186;SDS011;50491;39.484;-8.540;2022-11-20T07:05:45;12.43;;;8.18;;
64186;SDS011;50491;39.484;-8.540;2022-11-20T07:07:46;29.42;;;9.27;;
64186;SDS011;50491;39.484;-8.540;2022-11-20T07:09:46;17.65;;;9.02;;
64186;SDS011;50491;39.484;-8.540;2022-11-20T07:11:47;25.63;;;12.95;;
64186;SDS011;50491;39.484;-8.540;2022-11-20T07:13:48;23.52;;;8.10;;
64186;SDS011;50491;39.484;-8.540;2022-11-20T07:15:48;13.60;;;7.40;;
64186;SDS011;50491;39.484;-8.540;2022-11-20T07:17:49;14.65;;;9.32;;
64186;SDS011;50491;39.484;-8.540;2022-11-20T07:19:50;10.13;;;8.05;;
64186;SDS011;50491;39.484;-8.540;2022-11-20T07:22:09;16.17;;;8.40;;
64186;SDS011;50491;39.484;-8.540;2022-11-20T07:24:28;15.45;;;9.80;;
64186;SDS011;50491;39.484;-8.540;2022-11-20T07:26:29;31.05;;;9.65;;
64186;SDS011;50491;39.484;-8.540;2022-11-20T07:31:07;18.10;;;8.70;;
64186;SDS011;50491;39.484;-8.540;2022-11-20T07:33:26;16.08;;;7.70;;
64186;SDS011;50491;39.484;-8.540;2022-11-20T07:35:52;15.45;;;7.80;;
64186;SDS011;50491;39.484;-8.540;2022-11-20T07:38:05;18.65;;;8.60;;
64186;SDS011;50491;39.484;-8.540;2022-11-20T07:40:05;9.98;;;7.63;;
64186;SDS011;50491;39.484;-8.540;2022-11-20T07:42:25;11.25;;;8.05;;
64186;SDS011;50491;39.484;-8.540;2022-11-20T07:44:26;18.60;;;7.78;;
64186;SDS011;50491;39.484;-8.540;2022-11-20T07:46:45;17.80;;;8.48;;
64186;SDS011;50491;39.484;-8.540;2022-11-20T07:48:45;11.07;;;8.02;;
64186;SDS011;50491;39.484;-8.540;2022-11-20T07:50:46;13.40;;;8.57;;
64186;SDS011;50491;39.484;-8.540;2022-11-20T07:56:21;13.52;;;8.95;;
64186;SDS011;50491;39.484;-8.540;2022-11-20T07:58:22;21.30;;;9.15;;
64186;SDS011;50491;39.484;-8.540;2022-11-20T08:00:41;16.88;;;9.43;;
64186;SDS011;50491;39.484;-8.540;2022-11-20T08:02:42;10.57;;;7.38;;
64186;SDS011;50491;39.484;-8.540;2022-11-20T08:04:43;8.38;;;6.53;;
64186;SDS011;50491;39.484;-8.540;2022-11-20T08:06:43;12.95;;;7.82;;
64186;SDS011;50491;39.484;-8.540;2022-11-20T08:09:03;9.02;;;7.00;;
64186;SDS011;50491;39.484;-8.540;2022-11-20T08:11:22;24.83;;;9.48;;
64186;SDS011;50491;39.484;-8.540;2022-11-20T08:13:41;13.65;;;7.68;;
64186;SDS011;50491;39.484;-8.540;2022-11-20T08:16:32;8.63;;;6.85;;
64186;SDS011;50491;39.484;-8.540;2022-11-20T08:18:33;8.32;;;6.55;;
64186;SDS011;50491;39.484;-8.540;2022-11-20T08:20:34;8.30;;;5.60;;
64186;SDS011;50491;39.484;-8.540;2022-11-20T08:22:35;8.57;;;7.43;;
64186;SDS011;50491;39.484;-8.540;2022-11-20T08:24:35;8.50;;;6.28;;
64186;SDS011;50491;39.484;-8.540;2022-11-20T08:26:36;6.90;;;6.00;;
64186;SDS011;50491;39.484;-8.540;2022-11-20T08:28:38;11.45;;;6.78;;
64186;SDS011;50491;39.484;-8.540;2022-11-20T08:30:38;16.75;;;6.03;;
64186;SDS011;50491;39.484;-8.540;2022-11-20T08:32:39;12.68;;;6.32;;
64186;SDS011;50491;39.484;-8.540;2022-11-20T08:34:39;7.15;;;6.40;;
64186;SDS011;50491;39.484;-8.540;2022-11-20T08:36:40;11.68;;;5.88;;
64186;SDS011;50491;39.484;-8.540;2022-11-20T08:39:25;6.65;;;5.03;;
64186;SDS011;50491;39.484;-8.540;2022-11-20T08:41:26;7.47;;;5.13;;
64186;SDS011;50491;39.484;-8.540;2022-11-20T08:43:27;5.80;;;4.78;;
64186;SDS011;50491;39.484;-8.540;2022-11-20T08:50:50;9.13;;;5.15;;
64186;SDS011;50491;39.484;-8.540;2022-11-20T08:52:50;6.22;;;5.63;;
64186;SDS011;50491;39.484;-8.540;2022-11-20T08:54:51;10.18;;;5.95;;
64186;SDS011;50491;39.484;-8.540;2022-11-20T08:56:51;8.70;;;5.43;;
64186;SDS011;50491;39.484;-8.540;2022-11-20T08:58:52;21.75;;;5.53;;
64186;SDS011;50491;39.484;-8.540;2022-11-20T09:00:53;8.57;;;6.03;;
64186;SDS011;50491;39.484;-8.540;2022-11-20T09:06:05;14.43;;;8.85;;
64186;SDS011;50491;39.484;-8.540;2022-11-20T09:11:34;9.93;;;5.47;;
64186;SDS011;50491;39.484;-8.540;2022-11-20T09:16:14;7.88;;;4.72;;
64186;SDS011;50491;39.484;-8.540;2022-11-20T09:24:20;8.07;;;6.72;;
64186;SDS011;50491;39.484;-8.540;2022-11-20T09:27:11;8.13;;;4.28;;
64186;SDS011;50491;39.484;-8.540;2022-11-20T09:32:46;5.65;;;4.63;;
64186;SDS011;50491;39.484;-8.540;2022-11-20T09:38:15;3.85;;;3.45;;
64186;SDS011;50491;39.484;-8.540;2022-11-20T09:50:33;6.35;;;3.67;;
64186;SDS011;50491;39.484;-8.540;2022-11-20T09:55:06;5.07;;;3.97;;
64186;SDS011;50491;39.484;-8.540;2022-11-20T09:57:35;5.15;;;3.75;;
64186;SDS011;50491;39.484;-8.540;2022-11-20T10:00:03;6.20;;;3.13;;
64186;SDS011;50491;39.484;-8.540;2022-11-20T10:02:15;7.07;;;4.53;;
64186;SDS011;50491;39.484;-8.540;2022-11-20T10:04:26;4.90;;;3.63;;
64186;SDS011;50491;39.484;-8.540;2022-11-20T10:07:11;3.95;;;3.05;;
64186;SDS011;50491;39.484;-8.540;2022-11-20T10:11:44;6.88;;;3.28;;
64186;SDS011;50491;39.484;-8.540;2022-11-20T10:16:53;6.55;;;3.58;;
64186;SDS011;50491;39.484;-8.540;2022-11-20T10:26:31;9.50;;;3.28;;
64186;SDS011;50491;39.484;-8.540;2022-11-20T10:29:43;8.73;;;3.92;;
64186;SDS011;50491;39.484;-8.540;2022-11-20T10:34:31;8.98;;;4.50;;
64186;SDS011;50491;39.484;-8.540;2022-11-20T10:39:33;4.80;;;3.53;;
64186;SDS011;50491;39.484;-8.540;2022-11-20T10:41:40;4.47;;;3.45;;
64186;SDS011;50491;39.484;-8.540;2022-11-20T10:52:07;6.45;;;4.13;;
64186;SDS011;50491;39.484;-8.540;2022-11-20T10:58:04;4.75;;;3.05;;
64186;SDS011;50491;39.484;-8.540;2022-11-20T11:01:04;6.00;;;3.38;;
64186;SDS011;50491;39.484;-8.540;2022-11-20T11:04:33;15.85;;;8.68;;
64186;SDS011;50491;39.484;-8.540;2022-11-20T11:19:42;4.35;;;3.10;;
64186;SDS011;50491;39.484;-8.540;2022-11-20T11:21:58;6.75;;;3.53;;
64186;SDS011;50491;39.484;-8.540;2022-11-20T11:24:00;7.28;;;3.15;;
64186;SDS011;50491;39.484;-8.540;2022-11-20T11:26:05;9.77;;;3.78;;
64186;SDS011;50491;39.484;-8.540;2022-11-20T11:30:17;9.60;;;3.25;;
64186;SDS011;50491;39.484;-8.540;2022-11-20T11:32:20;7.07;;;2.97;;
64186;SDS011;50491;39.484;-8.540;2022-11-20T11:40:17;7.20;;;4.05;;
64186;SDS011;50491;39.484;-8.540;2022-11-20T11:42:19;7.22;;;3.22;;
64186;SDS011;50491;39.484;-8.540;2022-11-20T11:47:00;6.82;;;3.10;;
64186;SDS011;50491;39.484;-8.540;2022-11-20T11:49:08;5.93;;;3.75;;
64186;SDS011;50491;39.484;-8.540;2022-11-20T11:54:23;7.85;;;3.40;;
64186;SDS011;50491;39.484;-8.540;2022-11-20T11:56:27;7.20;;;2.72;;
64186;SDS011;50491;39.484;-8.540;2022-11-20T11:59:24;7.32;;;2.67;;
64186;SDS011;50491;39.484;-8.540;2022-11-20T12:01:42;5.90;;;3.20;;
64186;SDS011;50491;39.484;-8.540;2022-11-20T12:09:37;8.40;;;2.97;;
64186;SDS011;50491;39.484;-8.540;2022-11-20T12:14:19;5.65;;;3.33;;
64186;SDS011;50491;39.484;-8.540;2022-11-20T12:16:24;8.25;;;3.28;;
64186;SDS011;50491;39.484;-8.540;2022-11-20T12:18:24;12.10;;;3.22;;
64186;SDS011;50491;39.484;-8.540;2022-11-20T12:20:27;5.90;;;3.38;;
64186;SDS011;50491;39.484;-8.540;2022-11-20T12:22:50;8.13;;;3.30;;
64186;SDS011;50491;39.484;-8.540;2022-11-20T12:25:14;8.10;;;3.08;;
64186;SDS011;50491;39.484;-8.540;2022-11-20T12:39:42;19.65;;;8.93;;
64186;SDS011;50491;39.484;-8.540;2022-11-20T12:49:47;5.82;;;2.80;;
64186;SDS011;50491;39.484;-8.540;2022-11-20T12:52:03;6.70;;;2.63;;
64186;SDS011;50491;39.484;-8.540;2022-11-20T12:57:08;7.90;;;3.10;;
64186;SDS011;50491;39.484;-8.540;2022-11-20T13:01:38;9.77;;;3.35;;
64186;SDS011;50491;39.484;-8.540;2022-11-20T13:03:48;7.53;;;3.10;;
64186;SDS011;50491;39.484;-8.540;2022-11-20T13:08:36;10.35;;;3.20;;
64186;SDS011;50491;39.484;-8.540;2022-11-20T13:11:18;9.75;;;2.92;;
64186;SDS011;50491;39.484;-8.540;2022-11-20T13:15:49;10.38;;;4.22;;
64186;SDS011;50491;39.484;-8.540;2022-11-20T13:18:13;8.38;;;3.10;;
64186;SDS011;50491;39.484;-8.540;2022-11-20T13:20:15;14.07;;;3.15;;
64186;SDS011;50491;39.484;-8.540;2022-11-20T13:22:24;6.10;;;2.97;;
64186;SDS011;50491;39.484;-8.540;2022-11-20T13:24:50;5.57;;;3.47;;
64186;SDS011;50491;39.484;-8.540;2022-11-20T13:29:18;6.60;;;2.55;;
64186;SDS011;50491;39.484;-8.540;2022-11-20T13:34:26;7.05;;;2.80;;
64186;SDS011;50491;39.484;-8.540;2022-11-20T13:36:53;9.52;;;2.58;;
64186;SDS011;50491;39.484;-8.540;2022-11-20T13:39:27;7.35;;;2.30;;
64186;SDS011;50491;39.484;-8.540;2022-11-20T13:41:54;9.25;;;3.05;;
64186;SDS011;50491;39.484;-8.540;2022-11-20T13:46:42;4.28;;;2.33;;
64186;SDS011;50491;39.484;-8.540;2022-11-20T13:51:50;7.38;;;3.00;;
64186;SDS011;50491;39.484;-8.540;2022-11-20T14:05:23;5.57;;;1.63;;
64186;SDS011;50491;39.484;-8.540;2022-11-20T14:07:25;4.90;;;1.60;;
64186;SDS011;50491;39.484;-8.540;2022-11-20T14:09:32;5.38;;;1.80;;
64186;SDS011;50491;39.484;-8.540;2022-11-20T14:11:34;4.38;;;2.22;;
64186;SDS011;50491;39.484;-8.540;2022-11-20T14:13:36;4.55;;;1.85;;
64186;SDS011;50491;39.484;-8.540;2022-11-20T14:15:36;4.35;;;1.73;;
64186;SDS011;50491;39.484;-8.540;2022-11-20T14:17:40;8.30;;;2.22;;
64186;SDS011;50491;39.484;-8.540;2022-11-20T14:20:06;6.13;;;1.40;;
64186;SDS011;50491;39.484;-8.540;2022-11-20T14:24:22;5.05;;;1.50;;
64186;SDS011;50491;39.484;-8.540;2022-11-20T14:26:23;5.18;;;1.40;;
64186;SDS011;50491;39.484;-8.540;2022-11-20T14:28:49;3.40;;;1.40;;
64186;SDS011;50491;39.484;-8.540;2022-11-20T14:31:34;2.03;;;1.40;;
64186;SDS011;50491;39.484;-8.540;2022-11-20T14:33:59;5.80;;;1.75;;
64186;SDS011;50491;39.484;-8.540;2022-11-20T14:36:02;3.03;;;1.73;;
64186;SDS011;50491;39.484;-8.540;2022-11-20T14:38:03;4.97;;;1.50;;
64186;SDS011;50491;39.484;-8.540;2022-11-20T14:40:26;7.18;;;1.80;;
64186;SDS011;50491;39.484;-8.540;2022-11-20T14:42:52;15.73;;;2.03;;
64186;SDS011;50491;39.484;-8.540;2022-11-20T14:45:11;9.68;;;5.78;;
64186;SDS011;50491;39.484;-8.540;2022-11-20T14:47:15;23.77;;;7.43;;
64186;SDS011;50491;39.484;-8.540;2022-11-20T14:49:37;14.18;;;6.75;;
64186;SDS011;50491;39.484;-8.540;2022-11-20T14:52:00;7.38;;;2.83;;
64186;SDS011;50491;39.484;-8.540;2022-11-20T14:54:52;6.10;;;2.33;;
64186;SDS011;50491;39.484;-8.540;2022-11-20T14:57:01;13.70;;;6.25;;
64186;SDS011;50491;39.484;-8.540;2022-11-20T14:59:03;17.77;;;8.45;;
64186;SDS011;50491;39.484;-8.540;2022-11-20T15:04:29;17.27;;;8.10;;
64186;SDS011;50491;39.484;-8.540;2022-11-20T15:06:25;4.55;;;2.65;;
64186;SDS011;50491;39.484;-8.540;2022-11-20T15:08:52;4.22;;;2.13;;
64186;SDS011;50491;39.484;-8.540;2022-11-20T15:11:18;6.68;;;3.03;;
64186;SDS011;50491;39.484;-8.540;2022-11-20T15:13:37;5.43;;;2.40;;
64186;SDS011;50491;39.484;-8.540;2022-11-20T15:17:42;3.58;;;1.50;;
64186;SDS011;50491;39.484;-8.540;2022-11-20T15:20:12;8.18;;;2.60;;
64186;SDS011;50491;39.484;-8.540;2022-11-20T15:22:14;2.88;;;1.70;;
64186;SDS011;50491;39.484;-8.540;2022-11-20T15:24:52;2.95;;;1.90;;
64186;SDS011;50491;39.484;-8.540;2022-11-20T15:29:55;9.23;;;2.10;;
64186;SDS011;50491;39.484;-8.540;2022-11-20T15:32:14;10.63;;;1.90;;
64186;SDS011;50491;39.484;-8.540;2022-11-20T15:34:40;4.05;;;1.80;;
64186;SDS011;50491;39.484;-8.540;2022-11-20T15:39:31;7.75;;;2.28;;
64186;SDS011;50491;39.484;-8.540;2022-11-20T15:41:57;8.90;;;1.75;;
64186;SDS011;50491;39.484;-8.540;2022-11-20T15:44:48;6.75;;;2.22;;
64186;SDS011;50491;39.484;-8.540;2022-11-20T15:46:49;5.40;;;1.80;;
64186;SDS011;50491;39.484;-8.540;2022-11-20T15:48:51;2.92;;;1.60;;
64186;SDS011;50491;39.484;-8.540;2022-11-20T15:53:28;6.10;;;2.65;;
64186;SDS011;50491;39.484;-8.540;2022-11-20T15:55:29;2.75;;;1.92;;
64186;SDS011;50491;39.484;-8.540;2022-11-20T15:57:30;3.20;;;1.80;;
64186;SDS011;50491;39.484;-8.540;2022-11-20T16:01:50;4.97;;;2.22;;
64186;SDS011;50491;39.484;-8.540;2022-11-20T16:06:47;3.38;;;2.10;;
64186;SDS011;50491;39.484;-8.540;2022-11-20T16:11:26;6.50;;;2.33;;
64186;SDS011;50491;39.484;-8.540;2022-11-20T16:13:46;3.38;;;1.92;;
64186;SDS011;50491;39.484;-8.540;2022-11-20T16:16:05;4.57;;;2.42;;
64186;SDS011;50491;39.484;-8.540;2022-11-20T16:18:10;4.72;;;1.85;;
64186;SDS011;50491;39.484;-8.540;2022-11-20T16:20:11;3.85;;;1.92;;
64186;SDS011;50491;39.484;-8.540;2022-11-20T16:22:12;9.32;;;2.38;;
64186;SDS011;50491;39.484;-8.540;2022-11-20T16:24:13;6.70;;;2.75;;
64186;SDS011;50491;39.484;-8.540;2022-11-20T16:31:31;7.50;;;2.10;;
64186;SDS011;50491;39.484;-8.540;2022-11-20T16:33:32;4.32;;;2.08;;
64186;SDS011;50491;39.484;-8.540;2022-11-20T16:35:32;7.95;;;2.08;;
64186;SDS011;50491;39.484;-8.540;2022-11-20T16:37:33;5.97;;;2.50;;
64186;SDS011;50491;39.484;-8.540;2022-11-20T16:39:52;7.50;;;2.42;;
64186;SDS011;50491;39.484;-8.540;2022-11-20T16:47:46;5.78;;;2.47;;
64186;SDS011;50491;39.484;-8.540;2022-11-20T16:49:47;5.78;;;2.00;;
64186;SDS011;50491;39.484;-8.540;2022-11-20T16:51:48;6.40;;;2.20;;
64186;SDS011;50491;39.484;-8.540;2022-11-20T16:53:48;2.58;;;2.20;;
64186;SDS011;50491;39.484;-8.540;2022-11-20T16:55:50;8.75;;;2.35;;
64186;SDS011;50491;39.484;-8.540;2022-11-20T16:57:50;17.17;;;7.88;;
64186;SDS011;50491;39.484;-8.540;2022-11-20T16:59:51;20.38;;;8.55;;
64186;SDS011;50491;39.484;-8.540;2022-11-20T17:01:52;31.98;;;17.25;;
64186;SDS011;50491;39.484;-8.540;2022-11-20T17:03:59;9.90;;;4.07;;
64186;SDS011;50491;39.484;-8.540;2022-11-20T17:06:01;10.65;;;3.47;;
64186;SDS011;50491;39.484;-8.540;2022-11-20T17:10:40;3.75;;;2.30;;
64186;SDS011;50491;39.484;-8.540;2022-11-20T17:15:37;6.28;;;2.65;;
64186;SDS011;50491;39.484;-8.540;2022-11-20T17:17:43;10.43;;;3.83;;
64186;SDS011;50491;39.484;-8.540;2022-11-20T17:20:34;8.15;;;3.03;;
64186;SDS011;50491;39.484;-8.540;2022-11-20T17:28:10;9.20;;;6.25;;
64186;SDS011;50491;39.484;-8.540;2022-11-20T17:33:08;7.13;;;2.25;;
64186;SDS011;50491;39.484;-8.540;2022-11-20T17:35:08;5.70;;;2.90;;
64186;SDS011;50491;39.484;-8.540;2022-11-20T17:37:09;9.75;;;2.85;;
64186;SDS011;50491;39.484;-8.540;2022-11-20T17:46:46;9.43;;;4.15;;